createdAt,value
2022-08-30T00:00:10.328Z,1.10
2022-08-30T00:02:39.893Z,1.40
2022-08-30T00:07:53.597Z,1.15
2022-08-30T00:10:21.509Z,1.10
2022-08-30T00:12:50.774Z,1.00
2022-08-30T00:15:23.144Z,0.90
2022-08-30T00:17:51.208Z,1.00
2022-08-30T00:20:27.035Z,1.17
2022-08-30T00:22:55.732Z,1.33
2022-08-30T00:32:51.578Z,1.10
2022-08-30T00:35:21.610Z,1.20
2022-08-30T00:37:51.023Z,1.20
2022-08-30T00:40:27.239Z,1.13
2022-08-30T00:43:00.487Z,1.00
2022-08-30T00:45:39.724Z,1.38
2022-08-30T00:48:09.673Z,1.20
2022-08-30T00:56:02.466Z,1.25
2022-08-30T00:58:37.050Z,0.93
2022-08-30T01:01:12.821Z,1.10
2022-08-30T01:03:43.348Z,1.30
2022-08-30T01:06:15.448Z,1.27
2022-08-30T01:08:44.726Z,1.25
2022-08-30T01:11:17.982Z,1.13
2022-08-30T01:19:06.661Z,0.95
2022-08-30T01:21:46.468Z,1.15
2022-08-30T01:24:14.849Z,1.38
2022-08-30T01:26:42.326Z,1.10
2022-08-30T01:29:21.243Z,1.10
2022-08-30T01:31:51.680Z,0.98
2022-08-30T01:34:21.485Z,1.10
2022-08-30T01:44:44.180Z,1.10
2022-08-30T01:47:11.730Z,1.08
2022-08-30T01:49:43.437Z,1.20
2022-08-30T01:52:12.722Z,1.00
2022-08-30T01:54:43.183Z,1.20
2022-08-30T01:57:14.973Z,1.17
2022-08-30T01:59:47.458Z,0.90
2022-08-30T02:10:11.892Z,1.00
2022-08-30T02:12:41.502Z,1.10
2022-08-30T02:15:13.837Z,1.07
2022-08-30T02:17:42.314Z,1.20
2022-08-30T02:20:12.309Z,1.10
2022-08-30T02:22:43.419Z,1.00
2022-08-30T02:25:21.008Z,1.08
2022-08-30T02:27:51.829Z,1.23
2022-08-30T02:35:25.896Z,1.20
2022-08-30T02:37:53.932Z,1.00
2022-08-30T02:40:22.196Z,1.08
2022-08-30T02:42:51.454Z,1.10
2022-08-30T02:45:20.735Z,0.95
2022-08-30T02:47:50.006Z,0.97
2022-08-30T02:50:20.163Z,1.25
2022-08-30T02:55:26.247Z,1.20
2022-08-30T02:57:53.654Z,0.90
2022-08-30T03:00:22.073Z,1.10
2022-08-30T03:02:54.121Z,1.10
2022-08-30T03:05:21.759Z,1.20
2022-08-30T03:07:51.602Z,1.00
2022-08-30T03:10:21.001Z,0.93
2022-08-30T03:17:15.496Z,1.00
2022-08-30T03:19:44.828Z,1.10
2022-08-30T03:22:12.910Z,1.52
2022-08-30T03:24:41.725Z,1.30
2022-08-30T03:27:11.169Z,1.20
2022-08-30T03:29:40.825Z,1.13
2022-08-30T03:32:09.606Z,1.00
2022-08-30T03:37:26.854Z,1.50
2022-08-30T03:39:56.576Z,1.50
2022-08-30T03:42:24.828Z,1.42
2022-08-30T03:44:52.376Z,1.50
2022-08-30T03:47:21.600Z,1.10
2022-08-30T03:49:50.867Z,1.15
2022-08-30T03:52:19.817Z,1.40
2022-08-30T03:54:47.817Z,1.40
2022-08-30T04:02:01.568Z,1.70
2022-08-30T04:04:30.995Z,1.65
2022-08-30T04:06:59.875Z,1.52
2022-08-30T04:09:27.357Z,1.45
2022-08-30T04:11:54.736Z,1.40
2022-08-30T04:14:23.200Z,1.63
2022-08-30T04:16:51.933Z,1.40
2022-08-30T04:24:25.000Z,1.73
2022-08-30T04:26:52.448Z,1.85
2022-08-30T04:29:21.101Z,1.70
2022-08-30T04:31:50.119Z,2.28
2022-08-30T04:34:17.466Z,1.88
2022-08-30T04:36:48.487Z,1.75
2022-08-30T04:39:20.253Z,2.00
2022-08-30T04:44:34.812Z,1.98
2022-08-30T04:47:02.323Z,1.95
2022-08-30T04:49:32.853Z,1.80
2022-08-30T04:52:01.737Z,1.65
2022-08-30T04:54:31.014Z,1.92
2022-08-30T04:57:00.296Z,2.25
2022-08-30T04:59:29.855Z,1.70
2022-08-30T05:07:01.603Z,1.70
2022-08-30T05:09:31.036Z,2.05
2022-08-30T05:12:00.334Z,2.30
2022-08-30T05:14:27.909Z,1.90
2022-08-30T05:16:57.156Z,2.45
2022-08-30T05:19:24.614Z,1.70
2022-08-30T05:21:52.049Z,1.75
2022-08-30T05:27:12.041Z,1.98
2022-08-30T05:29:42.370Z,2.15
2022-08-30T05:32:11.814Z,2.10
2022-08-30T05:34:40.616Z,1.75
2022-08-30T05:37:08.479Z,1.77
2022-08-30T05:39:51.292Z,2.20
2022-08-30T05:45:11.337Z,2.22
2022-08-30T05:47:41.771Z,1.98
2022-08-30T05:50:11.663Z,1.92
2022-08-30T05:52:42.081Z,1.83
2022-08-30T05:55:12.514Z,2.08
2022-08-30T05:57:41.964Z,2.15
2022-08-30T06:00:13.643Z,2.10
2022-08-30T06:06:22.549Z,2.30
2022-08-30T06:08:51.922Z,1.77
2022-08-30T06:11:23.492Z,1.83
2022-08-30T06:13:53.395Z,1.98
2022-08-30T06:16:26.118Z,2.22
2022-08-30T06:18:55.425Z,2.05
2022-08-30T06:21:31.595Z,1.73
2022-08-30T06:29:11.182Z,1.95
2022-08-30T06:31:40.466Z,2.17
2022-08-30T06:34:10.103Z,1.85
2022-08-30T06:36:40.648Z,2.00
2022-08-30T06:39:11.430Z,1.92
2022-08-30T06:41:41.592Z,2.05
2022-08-30T06:44:24.218Z,2.13
2022-08-30T06:46:52.410Z,2.15
2022-08-30T06:54:21.829Z,2.08
2022-08-30T06:56:59.069Z,2.65
2022-08-30T06:59:27.696Z,1.90
2022-08-30T07:01:56.147Z,2.30
2022-08-30T07:04:24.176Z,2.63
2022-08-30T07:06:53.116Z,2.03
2022-08-30T07:09:25.033Z,2.47
2022-08-30T07:16:22.763Z,3.00
2022-08-30T07:18:54.738Z,2.77
2022-08-30T07:21:27.469Z,2.83
2022-08-30T07:23:57.357Z,2.80
2022-08-30T07:26:28.232Z,3.42
2022-08-30T07:28:57.751Z,3.10
2022-08-30T07:31:25.753Z,3.20
2022-08-30T07:36:32.974Z,3.50
2022-08-30T07:39:02.259Z,3.03
2022-08-30T07:41:38.353Z,2.60
2022-08-30T07:44:10.789Z,3.03
2022-08-30T07:46:41.950Z,3.08
2022-08-30T07:49:12.851Z,3.15
2022-08-30T07:51:42.723Z,3.40
2022-08-30T07:58:31.025Z,3.13
2022-08-30T08:01:03.513Z,3.00
2022-08-30T08:03:32.502Z,3.08
2022-08-30T08:06:03.957Z,3.17
2022-08-30T08:08:32.337Z,3.15
2022-08-30T08:11:07.575Z,2.90
2022-08-30T08:13:44.648Z,3.28
2022-08-30T08:20:22.859Z,2.75
2022-08-30T08:22:52.226Z,3.28
2022-08-30T08:25:21.612Z,3.08
2022-08-30T08:27:52.155Z,2.67
2022-08-30T08:32:52.074Z,2.92
2022-08-30T08:37:53.977Z,3.47
2022-08-30T08:46:17.811Z,3.03
2022-08-30T08:49:01.410Z,3.50
2022-08-30T08:51:52.534Z,3.42
2022-08-30T08:54:46.696Z,3.33
2022-08-30T08:57:17.038Z,3.72
2022-08-30T08:59:45.958Z,3.45
2022-08-30T09:10:51.990Z,3.17
2022-08-30T09:13:25.244Z,3.95
2022-08-30T09:15:55.284Z,3.22
2022-08-30T09:18:54.868Z,3.28
2022-08-30T09:21:27.656Z,3.40
2022-08-30T09:24:01.921Z,4.55
2022-08-30T09:26:36.691Z,4.22
2022-08-30T09:33:23.689Z,3.00
2022-08-30T09:35:54.120Z,3.17
2022-08-30T09:38:34.794Z,3.38
2022-08-30T09:44:14.174Z,2.83
2022-08-30T09:46:50.735Z,3.38
2022-08-30T09:49:35.820Z,3.40
2022-08-30T09:58:12.845Z,3.22
2022-08-30T10:01:05.139Z,3.25
2022-08-30T10:03:51.993Z,3.00
2022-08-30T10:06:43.018Z,3.70
2022-08-30T10:09:28.590Z,3.65
2022-08-30T10:12:16.428Z,3.10
2022-08-30T10:15:02.070Z,3.28
2022-08-30T10:23:18.224Z,3.03
2022-08-30T10:26:13.985Z,2.92
2022-08-30T10:29:03.501Z,2.95
2022-08-30T10:31:56.904Z,2.85
2022-08-30T10:34:32.028Z,3.00
2022-08-30T10:37:14.070Z,2.88
2022-08-30T10:39:52.385Z,2.50
2022-08-30T10:48:27.260Z,3.10
2022-08-30T10:50:59.872Z,2.90
2022-08-30T10:53:57.907Z,2.92
2022-08-30T10:56:31.873Z,3.22
2022-08-30T10:59:01.644Z,3.08
2022-08-30T11:01:56.584Z,2.67
2022-08-30T11:04:31.524Z,3.10
2022-08-30T11:15:24.999Z,3.28
2022-08-30T11:18:04.397Z,4.00
2022-08-30T11:20:52.348Z,3.03
2022-08-30T11:23:36.214Z,3.03
2022-08-30T11:26:07.750Z,3.13
2022-08-30T11:28:41.130Z,3.00
2022-08-30T11:31:22.462Z,4.15
2022-08-30T11:37:09.826Z,3.30
2022-08-30T11:39:47.284Z,3.40
2022-08-30T11:42:29.315Z,3.30
2022-08-30T11:45:25.324Z,3.80
2022-08-30T11:48:11.882Z,3.92
2022-08-30T11:51:06.936Z,3.22
2022-08-30T11:53:45.484Z,3.38
2022-08-30T12:04:37.369Z,3.10
2022-08-30T12:07:08.046Z,4.05
2022-08-30T12:09:35.726Z,3.60
2022-08-30T12:12:13.801Z,3.40
2022-08-30T12:14:51.977Z,3.67
2022-08-30T12:17:52.221Z,3.10
2022-08-30T12:27:33.339Z,3.33
2022-08-30T12:30:06.990Z,3.10
2022-08-30T12:32:42.992Z,4.00
2022-08-30T12:35:27.997Z,4.20
2022-08-30T12:38:12.461Z,3.08
2022-08-30T12:40:54.249Z,4.13
2022-08-30T12:43:40.280Z,2.78
2022-08-30T12:50:44.282Z,3.50
2022-08-30T12:53:14.346Z,3.10
2022-08-30T12:56:02.335Z,3.08
2022-08-30T12:58:51.782Z,2.70
2022-08-30T13:01:32.562Z,2.73
2022-08-30T13:04:22.404Z,3.08
2022-08-30T13:06:52.929Z,3.22
2022-08-30T13:14:47.097Z,3.25
2022-08-30T13:17:24.333Z,2.50
2022-08-30T13:20:17.602Z,2.72
2022-08-30T13:23:06.385Z,3.25
2022-08-30T13:25:35.297Z,2.97
2022-08-30T13:30:33.363Z,2.30
2022-08-30T13:40:56.910Z,2.65
2022-08-30T13:43:24.625Z,2.90
2022-08-30T13:45:53.087Z,2.72
2022-08-30T13:48:25.066Z,3.42
2022-08-30T13:50:56.952Z,2.58
2022-08-30T13:56:14.266Z,3.40
2022-08-30T14:01:23.257Z,2.40
2022-08-30T14:09:31.904Z,2.53
2022-08-30T14:12:04.093Z,2.70
2022-08-30T14:14:42.641Z,2.30
2022-08-30T14:17:15.424Z,2.97
2022-08-30T14:24:54.145Z,3.40
2022-08-30T14:27:23.322Z,2.67
2022-08-30T14:29:54.372Z,2.83
2022-08-30T14:32:23.734Z,3.45
2022-08-30T14:34:54.537Z,3.10
2022-08-30T14:37:23.353Z,2.95
2022-08-30T14:39:52.832Z,2.38
2022-08-30T14:49:51.645Z,3.08
2022-08-30T14:52:24.343Z,2.70
2022-08-30T14:54:57.495Z,3.08
2022-08-30T14:57:26.130Z,3.35
2022-08-30T14:59:53.498Z,3.08
2022-08-30T15:02:26.924Z,2.72
2022-08-30T15:04:54.661Z,3.58
2022-08-30T15:15:15.518Z,2.88
2022-08-30T15:17:44.619Z,2.83
2022-08-30T15:20:14.279Z,2.58
2022-08-30T15:22:43.308Z,3.00
2022-08-30T15:25:14.733Z,2.60
2022-08-30T15:27:43.528Z,2.95
2022-08-30T15:30:15.004Z,2.67
2022-08-30T15:36:56.742Z,2.95
2022-08-30T15:39:27.545Z,2.95
2022-08-30T15:42:00.915Z,2.60
2022-08-30T15:44:34.445Z,3.53
2022-08-30T15:47:05.410Z,2.78
2022-08-30T15:49:33.513Z,2.17
2022-08-30T15:52:04.723Z,3.00
2022-08-30T15:57:14.424Z,2.90
2022-08-30T15:59:43.693Z,3.60
2022-08-30T16:02:12.545Z,3.10
2022-08-30T16:04:41.718Z,2.40
2022-08-30T16:07:11.926Z,2.83
2022-08-30T16:09:41.921Z,2.50
2022-08-30T16:12:10.095Z,3.05
2022-08-30T16:19:26.745Z,2.50
2022-08-30T16:21:54.237Z,2.78
2022-08-30T16:24:24.720Z,2.67
2022-08-30T16:26:53.818Z,2.47
2022-08-30T16:29:23.019Z,2.67
2022-08-30T16:31:51.862Z,2.75
2022-08-30T16:34:23.093Z,2.05
2022-08-30T16:39:34.108Z,2.47
2022-08-30T16:42:06.589Z,2.00
2022-08-30T16:44:34.354Z,2.30
2022-08-30T16:47:03.734Z,2.65
2022-08-30T16:49:33.109Z,3.63
2022-08-30T16:52:02.691Z,3.00
2022-08-30T16:54:33.250Z,2.28
2022-08-30T17:01:45.231Z,2.35
2022-08-30T17:04:19.284Z,1.98
2022-08-30T17:06:50.420Z,2.10
2022-08-30T17:09:22.267Z,2.00
2022-08-30T17:11:50.448Z,2.30
2022-08-30T17:14:28.234Z,2.58
2022-08-30T17:17:00.403Z,2.58
2022-08-30T17:22:14.654Z,2.58
2022-08-30T17:24:43.787Z,1.90
2022-08-30T17:27:12.940Z,2.38
2022-08-30T17:29:42.237Z,2.28
2022-08-30T17:32:09.598Z,2.55
2022-08-30T17:34:38.968Z,2.08
2022-08-30T17:37:08.688Z,2.55
2022-08-30T17:44:29.836Z,3.10
2022-08-30T17:47:05.664Z,2.47
2022-08-30T17:49:33.900Z,2.40
2022-08-30T17:52:04.155Z,2.63
2022-08-30T17:54:37.285Z,2.35
2022-08-30T17:57:13.509Z,2.25
2022-08-30T17:59:42.341Z,2.63
2022-08-30T18:04:47.667Z,2.65
2022-08-30T18:07:18.080Z,1.98
2022-08-30T18:09:49.457Z,2.05
2022-08-30T18:12:16.782Z,2.47
2022-08-30T18:14:44.271Z,2.20
2022-08-30T18:17:13.749Z,3.05
2022-08-30T18:19:45.885Z,1.67
2022-08-30T18:22:16.436Z,2.42
2022-08-30T18:32:13.861Z,2.40
2022-08-30T18:34:43.466Z,2.05
2022-08-30T18:37:13.791Z,2.63
2022-08-30T18:39:44.269Z,1.80
2022-08-30T18:42:13.468Z,2.17
2022-08-30T18:44:43.490Z,2.13
2022-08-30T18:47:13.204Z,2.50
2022-08-30T18:49:46.198Z,1.90
2022-08-30T18:57:24.782Z,2.00
2022-08-30T18:59:54.173Z,1.90
2022-08-30T19:02:23.017Z,2.60
2022-08-30T19:04:55.567Z,2.20
2022-08-30T19:07:26.669Z,2.08
2022-08-30T19:09:59.123Z,1.60
2022-08-30T19:12:27.642Z,1.83
2022-08-30T19:19:46.297Z,1.92
2022-08-30T19:22:26.673Z,1.83
2022-08-30T19:24:54.988Z,1.90
2022-08-30T19:27:37.564Z,2.20
2022-08-30T19:30:15.183Z,1.75
2022-08-30T19:32:47.180Z,1.98
2022-08-30T19:35:15.367Z,2.15
2022-08-30T19:40:23.774Z,1.77
2022-08-30T19:42:54.562Z,1.85
2022-08-30T19:45:23.747Z,1.70
2022-08-30T19:47:54.649Z,1.88
2022-08-30T19:50:25.697Z,2.10
2022-08-30T19:52:55.198Z,2.20
2022-08-30T19:55:28.396Z,1.58
2022-08-30T20:03:03.168Z,2.45
2022-08-30T20:05:33.218Z,1.98
2022-08-30T20:08:00.914Z,2.90
2022-08-30T20:10:30.216Z,2.28
2022-08-30T20:13:03.818Z,2.25
2022-08-30T20:15:34.541Z,1.83
2022-08-30T20:18:06.151Z,2.00
2022-08-30T20:29:34.363Z,2.30
2022-08-30T20:32:03.323Z,2.28
2022-08-30T20:34:30.806Z,2.08
2022-08-30T20:36:59.707Z,2.17
2022-08-30T20:39:27.065Z,2.30
2022-08-30T20:41:54.574Z,2.20
2022-08-30T20:44:23.929Z,2.13
2022-08-30T20:46:54.689Z,2.00
2022-08-30T20:54:34.753Z,2.13
2022-08-30T20:57:04.745Z,1.80
2022-08-30T20:59:36.482Z,2.58
2022-08-30T21:02:04.547Z,1.92
2022-08-30T21:04:33.827Z,1.77
2022-08-30T21:07:02.940Z,2.05
2022-08-30T21:09:30.335Z,2.03
2022-08-30T21:12:00.172Z,1.73
2022-08-30T21:19:45.473Z,1.65
2022-08-30T21:22:14.697Z,1.70
2022-08-30T21:24:43.913Z,1.80
2022-08-30T21:27:13.792Z,1.90
2022-08-30T21:29:42.502Z,2.50
2022-08-30T21:32:10.109Z,1.75
2022-08-30T21:34:56.085Z,2.13
2022-08-30T21:41:57.281Z,1.80
2022-08-30T21:44:26.744Z,2.30
2022-08-30T21:46:55.244Z,2.08
2022-08-30T21:49:24.640Z,1.92
2022-08-30T21:51:55.230Z,1.90
2022-08-30T21:54:25.844Z,2.10
2022-08-30T21:57:03.834Z,2.03
2022-08-30T22:02:54.503Z,2.35
2022-08-30T22:05:23.563Z,2.58
2022-08-30T22:07:52.859Z,1.77
2022-08-30T22:10:24.249Z,1.90
2022-08-30T22:12:53.604Z,1.60
2022-08-30T22:15:23.863Z,1.73
2022-08-30T22:17:54.834Z,1.88
2022-08-30T22:20:24.594Z,1.60
2022-08-30T22:27:55.276Z,1.52
2022-08-30T22:30:24.203Z,2.47
2022-08-30T22:32:53.631Z,2.05
2022-08-30T22:35:29.170Z,1.80
2022-08-30T22:37:56.561Z,1.85
2022-08-30T22:40:24.949Z,1.83
2022-08-30T22:42:54.277Z,1.60
2022-08-30T22:49:09.805Z,2.07
2022-08-30T22:51:39.049Z,2.17
2022-08-30T22:54:08.161Z,1.87
2022-08-30T22:56:37.149Z,1.60
2022-08-30T22:59:05.887Z,2.30
2022-08-30T23:01:44.110Z,2.25
2022-08-30T23:04:14.387Z,2.10
2022-08-30T23:09:24.976Z,1.63
2022-08-30T23:11:54.261Z,1.55
2022-08-30T23:14:23.921Z,1.73
2022-08-30T23:16:53.395Z,1.95
2022-08-30T23:19:20.909Z,1.73
2022-08-30T23:21:50.979Z,2.40
2022-08-30T23:24:39.489Z,1.88
2022-08-30T23:36:14.105Z,2.05
2022-08-30T23:39:00.019Z,1.95
2022-08-30T23:41:46.152Z,2.50
2022-08-30T23:44:33.985Z,1.67
2022-08-30T23:47:19.983Z,1.70
2022-08-30T23:50:06.012Z,1.60
2022-08-30T23:52:54.159Z,2.03
